Axis, Alabama
Current Conditions -  °F | °C
As of 11:53 AM on Sunday 25 Jan 2015 (Local Time) from KBFM Reporting Station
Clear Clear  
Wind Chill: 62°   Ceiling: Unl
Heat Index: 62°   Visibility: 10mi
Dew Point: 42°   Wind: 9mph
Humidity: 48%   Direction: 240°WSW
Pressure: 29.97"   Gusts: 18mph
Location:  30.93°N, 88.03°W
Report Text: KBFM 251753Z 24008G16KT 200V270 10SM CLR 17/06 A2997 RMK AO2 RAB22E31 SLP149 P0000 60000 T01670056 10172 20028 58031
Loading
Personal Weather Stations






























Interactive Weather Map New forecast layout! Learn more

10-Day Weather Forecast

Advertisements
Track Severe Weather on mobile